sensor_id;sensor_type;location;lat;lon;timestamp;P1;durP1;ratioP1;P2;durP2;ratioP2
6374;SDS011;35400;45.472;-122.822;2023-02-19T00:04:00;2.37;;;1.60;;
6374;SDS011;35400;45.472;-122.822;2023-02-19T00:06:32;2.97;;;1.53;;
6374;SDS011;35400;45.472;-122.822;2023-02-19T00:09:00;2.97;;;1.30;;
6374;SDS011;35400;45.472;-122.822;2023-02-19T00:11:30;2.13;;;1.53;;
6374;SDS011;35400;45.472;-122.822;2023-02-19T00:13:58;1.77;;;1.20;;
6374;SDS011;35400;45.472;-122.822;2023-02-19T00:16:27;2.10;;;1.17;;
6374;SDS011;35400;45.472;-122.822;2023-02-19T00:18:56;1.27;;;1.10;;
6374;SDS011;35400;45.472;-122.822;2023-02-19T00:21:25;2.67;;;1.23;;
6374;SDS011;35400;45.472;-122.822;2023-02-19T00:23:53;2.73;;;0.90;;
6374;SDS011;35400;45.472;-122.822;2023-02-19T00:26:21;1.20;;;0.97;;
6374;SDS011;35400;45.472;-122.822;2023-02-19T00:28:49;1.23;;;0.70;;
6374;SDS011;35400;45.472;-122.822;2023-02-19T00:31:18;1.43;;;1.13;;
6374;SDS011;35400;45.472;-122.822;2023-02-19T00:33:50;1.80;;;0.90;;
6374;SDS011;35400;45.472;-122.822;2023-02-19T00:36:19;0.63;;;0.63;;
6374;SDS011;35400;45.472;-122.822;2023-02-19T00:38:46;0.97;;;0.80;;
6374;SDS011;35400;45.472;-122.822;2023-02-19T00:41:14;1.47;;;0.83;;
6374;SDS011;35400;45.472;-122.822;2023-02-19T00:46:26;1.97;;;1.03;;
6374;SDS011;35400;45.472;-122.822;2023-02-19T00:48:55;1.10;;;1.00;;
6374;SDS011;35400;45.472;-122.822;2023-02-19T00:51:24;1.53;;;1.40;;
6374;SDS011;35400;45.472;-122.822;2023-02-19T00:53:53;2.70;;;2.00;;
6374;SDS011;35400;45.472;-122.822;2023-02-19T00:56:20;2.03;;;1.20;;
6374;SDS011;35400;45.472;-122.822;2023-02-19T00:58:47;3.00;;;1.47;;
6374;SDS011;35400;45.472;-122.822;2023-02-19T01:01:15;2.77;;;1.20;;
6374;SDS011;35400;45.472;-122.822;2023-02-19T01:03:43;1.60;;;1.10;;
6374;SDS011;35400;45.472;-122.822;2023-02-19T01:06:12;2.23;;;1.00;;
6374;SDS011;35400;45.472;-122.822;2023-02-19T01:08:40;2.10;;;0.90;;
6374;SDS011;35400;45.472;-122.822;2023-02-19T01:11:08;3.07;;;1.20;;
6374;SDS011;35400;45.472;-122.822;2023-02-19T01:13:35;2.63;;;1.17;;
6374;SDS011;35400;45.472;-122.822;2023-02-19T01:16:06;1.37;;;1.20;;
6374;SDS011;35400;45.472;-122.822;2023-02-19T01:18:36;1.83;;;1.37;;
6374;SDS011;35400;45.472;-122.822;2023-02-19T01:21:08;2.33;;;1.00;;
6374;SDS011;35400;45.472;-122.822;2023-02-19T01:23:44;3.17;;;1.60;;
6374;SDS011;35400;45.472;-122.822;2023-02-19T01:26:13;2.03;;;1.10;;
6374;SDS011;35400;45.472;-122.822;2023-02-19T01:28:43;1.40;;;1.20;;
6374;SDS011;35400;45.472;-122.822;2023-02-19T01:31:12;3.43;;;1.33;;
6374;SDS011;35400;45.472;-122.822;2023-02-19T01:33:44;4.13;;;1.70;;
6374;SDS011;35400;45.472;-122.822;2023-02-19T01:36:13;2.00;;;1.40;;
6374;SDS011;35400;45.472;-122.822;2023-02-19T01:38:40;4.40;;;1.70;;
6374;SDS011;35400;45.472;-122.822;2023-02-19T01:41:09;4.10;;;2.13;;
6374;SDS011;35400;45.472;-122.822;2023-02-19T01:46:28;5.70;;;2.07;;
6374;SDS011;35400;45.472;-122.822;2023-02-19T01:48:58;3.03;;;1.73;;
6374;SDS011;35400;45.472;-122.822;2023-02-19T01:51:37;7.87;;;2.17;;
6374;SDS011;35400;45.472;-122.822;2023-02-19T01:54:12;6.83;;;2.37;;
6374;SDS011;35400;45.472;-122.822;2023-02-19T01:56:42;10.77;;;3.43;;
6374;SDS011;35400;45.472;-122.822;2023-02-19T01:59:11;15.60;;;4.03;;
6374;SDS011;35400;45.472;-122.822;2023-02-19T02:01:38;11.10;;;3.53;;
6374;SDS011;35400;45.472;-122.822;2023-02-19T02:04:07;7.93;;;3.53;;
6374;SDS011;35400;45.472;-122.822;2023-02-19T02:06:40;9.83;;;2.63;;
6374;SDS011;35400;45.472;-122.822;2023-02-19T02:09:20;10.67;;;2.93;;
6374;SDS011;35400;45.472;-122.822;2023-02-19T02:12:12;18.57;;;3.83;;
6374;SDS011;35400;45.472;-122.822;2023-02-19T02:14:44;14.67;;;3.67;;
6374;SDS011;35400;45.472;-122.822;2023-02-19T02:20:01;14.13;;;3.43;;
6374;SDS011;35400;45.472;-122.822;2023-02-19T02:22:56;14.63;;;3.47;;
6374;SDS011;35400;45.472;-122.822;2023-02-19T02:26:24;15.67;;;3.67;;
6374;SDS011;35400;45.472;-122.822;2023-02-19T02:32:00;14.73;;;4.57;;
6374;SDS011;35400;45.472;-122.822;2023-02-19T02:35:19;13.47;;;3.90;;
6374;SDS011;35400;45.472;-122.822;2023-02-19T02:37:31;13.17;;;3.70;;
6374;SDS011;35400;45.472;-122.822;2023-02-19T02:40:01;12.53;;;3.63;;
6374;SDS011;35400;45.472;-122.822;2023-02-19T02:42:32;15.33;;;4.20;;
6374;SDS011;35400;45.472;-122.822;2023-02-19T02:50:58;18.03;;;4.30;;
6374;SDS011;35400;45.472;-122.822;2023-02-19T02:53:38;16.03;;;4.67;;
6374;SDS011;35400;45.472;-122.822;2023-02-19T02:56:39;17.80;;;4.57;;
6374;SDS011;35400;45.472;-122.822;2023-02-19T02:59:09;15.27;;;4.77;;
6374;SDS011;35400;45.472;-122.822;2023-02-19T03:01:40;16.53;;;4.27;;
6374;SDS011;35400;45.472;-122.822;2023-02-19T03:08:06;15.63;;;3.80;;
6374;SDS011;35400;45.472;-122.822;2023-02-19T03:10:53;15.77;;;4.00;;
6374;SDS011;35400;45.472;-122.822;2023-02-19T03:13:50;14.73;;;4.30;;
6374;SDS011;35400;45.472;-122.822;2023-02-19T03:16:40;12.53;;;3.90;;
6374;SDS011;35400;45.472;-122.822;2023-02-19T03:19:27;14.97;;;4.10;;
6374;SDS011;35400;45.472;-122.822;2023-02-19T03:21:59;15.67;;;4.23;;
6374;SDS011;35400;45.472;-122.822;2023-02-19T03:24:37;13.93;;;4.37;;
6374;SDS011;35400;45.472;-122.822;2023-02-19T03:27:43;12.13;;;3.77;;
6374;SDS011;35400;45.472;-122.822;2023-02-19T03:30:14;12.10;;;3.87;;
6374;SDS011;35400;45.472;-122.822;2023-02-19T03:35:29;17.67;;;4.47;;
6374;SDS011;35400;45.472;-122.822;2023-02-19T03:38:05;13.03;;;4.30;;
6374;SDS011;35400;45.472;-122.822;2023-02-19T03:40:37;16.87;;;3.77;;
6374;SDS011;35400;45.472;-122.822;2023-02-19T03:46:13;15.93;;;3.30;;
6374;SDS011;35400;45.472;-122.822;2023-02-19T03:48:50;13.57;;;3.87;;
6374;SDS011;35400;45.472;-122.822;2023-02-19T03:51:28;17.43;;;3.83;;
6374;SDS011;35400;45.472;-122.822;2023-02-19T03:57:03;14.23;;;4.40;;
6374;SDS011;35400;45.472;-122.822;2023-02-19T03:59:42;14.17;;;4.17;;
6374;SDS011;35400;45.472;-122.822;2023-02-19T04:02:22;18.83;;;4.43;;
6374;SDS011;35400;45.472;-122.822;2023-02-19T04:07:40;19.20;;;4.50;;
6374;SDS011;35400;45.472;-122.822;2023-02-19T04:10:14;17.73;;;4.87;;
6374;SDS011;35400;45.472;-122.822;2023-02-19T04:12:48;16.80;;;4.40;;
6374;SDS011;35400;45.472;-122.822;2023-02-19T04:15:23;18.03;;;4.77;;
6374;SDS011;35400;45.472;-122.822;2023-02-19T04:17:55;16.23;;;4.50;;
6374;SDS011;35400;45.472;-122.822;2023-02-19T04:20:38;22.63;;;4.60;;
6374;SDS011;35400;45.472;-122.822;2023-02-19T04:23:08;11.90;;;4.10;;
6374;SDS011;35400;45.472;-122.822;2023-02-19T04:25:36;13.67;;;4.20;;
6374;SDS011;35400;45.472;-122.822;2023-02-19T04:28:06;18.60;;;4.83;;
6374;SDS011;35400;45.472;-122.822;2023-02-19T04:30:33;13.33;;;3.97;;
6374;SDS011;35400;45.472;-122.822;2023-02-19T04:33:00;17.30;;;5.23;;
6374;SDS011;35400;45.472;-122.822;2023-02-19T04:35:27;19.33;;;4.97;;
6374;SDS011;35400;45.472;-122.822;2023-02-19T04:37:54;15.50;;;4.53;;
6374;SDS011;35400;45.472;-122.822;2023-02-19T04:40:21;17.27;;;4.57;;
6374;SDS011;35400;45.472;-122.822;2023-02-19T04:42:47;12.47;;;4.40;;
6374;SDS011;35400;45.472;-122.822;2023-02-19T04:45:14;15.20;;;4.50;;
6374;SDS011;35400;45.472;-122.822;2023-02-19T04:47:41;16.63;;;4.83;;
6374;SDS011;35400;45.472;-122.822;2023-02-19T04:50:08;20.53;;;4.80;;
6374;SDS011;35400;45.472;-122.822;2023-02-19T04:52:35;16.40;;;4.87;;
6374;SDS011;35400;45.472;-122.822;2023-02-19T04:55:02;18.30;;;5.43;;
6374;SDS011;35400;45.472;-122.822;2023-02-19T04:57:29;22.20;;;6.13;;
6374;SDS011;35400;45.472;-122.822;2023-02-19T04:59:56;19.23;;;5.60;;
6374;SDS011;35400;45.472;-122.822;2023-02-19T05:02:23;18.57;;;5.57;;
6374;SDS011;35400;45.472;-122.822;2023-02-19T05:04:50;18.23;;;6.13;;
6374;SDS011;35400;45.472;-122.822;2023-02-19T05:07:17;13.30;;;4.67;;
6374;SDS011;35400;45.472;-122.822;2023-02-19T05:09:44;16.13;;;5.17;;
6374;SDS011;35400;45.472;-122.822;2023-02-19T05:12:10;15.00;;;5.43;;
6374;SDS011;35400;45.472;-122.822;2023-02-19T05:14:37;15.50;;;4.57;;
6374;SDS011;35400;45.472;-122.822;2023-02-19T05:17:04;20.50;;;5.57;;
6374;SDS011;35400;45.472;-122.822;2023-02-19T05:19:31;19.13;;;4.60;;
6374;SDS011;35400;45.472;-122.822;2023-02-19T05:21:58;17.03;;;5.43;;
6374;SDS011;35400;45.472;-122.822;2023-02-19T05:24:24;14.50;;;4.60;;
6374;SDS011;35400;45.472;-122.822;2023-02-19T05:26:52;19.47;;;5.17;;
6374;SDS011;35400;45.472;-122.822;2023-02-19T05:29:19;12.93;;;4.03;;
6374;SDS011;35400;45.472;-122.822;2023-02-19T05:31:46;11.97;;;4.53;;
6374;SDS011;35400;45.472;-122.822;2023-02-19T05:34:13;18.77;;;5.17;;
6374;SDS011;35400;45.472;-122.822;2023-02-19T05:36:40;15.93;;;4.97;;
6374;SDS011;35400;45.472;-122.822;2023-02-19T05:39:08;17.27;;;4.60;;
6374;SDS011;35400;45.472;-122.822;2023-02-19T05:41:37;19.57;;;4.67;;
6374;SDS011;35400;45.472;-122.822;2023-02-19T05:44:04;12.40;;;4.50;;
6374;SDS011;35400;45.472;-122.822;2023-02-19T05:46:31;20.23;;;5.77;;
6374;SDS011;35400;45.472;-122.822;2023-02-19T05:48:58;14.03;;;6.20;;
6374;SDS011;35400;45.472;-122.822;2023-02-19T05:51:25;14.27;;;4.30;;
6374;SDS011;35400;45.472;-122.822;2023-02-19T05:53:52;21.17;;;5.20;;
6374;SDS011;35400;45.472;-122.822;2023-02-19T05:59:01;18.30;;;5.53;;
6374;SDS011;35400;45.472;-122.822;2023-02-19T06:01:45;20.03;;;8.20;;
6374;SDS011;35400;45.472;-122.822;2023-02-19T06:04:13;26.97;;;8.17;;
6374;SDS011;35400;45.472;-122.822;2023-02-19T06:06:41;18.50;;;6.70;;
6374;SDS011;35400;45.472;-122.822;2023-02-19T06:09:08;18.13;;;5.60;;
6374;SDS011;35400;45.472;-122.822;2023-02-19T06:11:36;18.87;;;4.97;;
6374;SDS011;35400;45.472;-122.822;2023-02-19T06:14:03;23.53;;;6.23;;
6374;SDS011;35400;45.472;-122.822;2023-02-19T06:16:30;21.17;;;5.63;;
6374;SDS011;35400;45.472;-122.822;2023-02-19T06:19:02;25.90;;;5.43;;
6374;SDS011;35400;45.472;-122.822;2023-02-19T06:21:29;17.80;;;5.27;;
6374;SDS011;35400;45.472;-122.822;2023-02-19T06:23:56;18.57;;;4.37;;
6374;SDS011;35400;45.472;-122.822;2023-02-19T06:26:23;18.80;;;5.13;;
6374;SDS011;35400;45.472;-122.822;2023-02-19T06:28:50;18.17;;;4.50;;
6374;SDS011;35400;45.472;-122.822;2023-02-19T06:31:18;16.63;;;4.07;;
6374;SDS011;35400;45.472;-122.822;2023-02-19T06:33:47;14.90;;;4.20;;
6374;SDS011;35400;45.472;-122.822;2023-02-19T06:36:16;18.97;;;4.40;;
6374;SDS011;35400;45.472;-122.822;2023-02-19T06:38:44;16.00;;;4.83;;
6374;SDS011;35400;45.472;-122.822;2023-02-19T06:41:11;23.87;;;5.00;;
6374;SDS011;35400;45.472;-122.822;2023-02-19T06:43:39;24.90;;;5.57;;
6374;SDS011;35400;45.472;-122.822;2023-02-19T06:46:06;22.63;;;5.40;;
6374;SDS011;35400;45.472;-122.822;2023-02-19T06:48:33;15.03;;;3.67;;
6374;SDS011;35400;45.472;-122.822;2023-02-19T06:51:00;12.13;;;3.93;;
6374;SDS011;35400;45.472;-122.822;2023-02-19T06:53:28;13.80;;;4.50;;
6374;SDS011;35400;45.472;-122.822;2023-02-19T06:56:02;18.80;;;4.30;;
6374;SDS011;35400;45.472;-122.822;2023-02-19T06:58:31;12.13;;;4.30;;
6374;SDS011;35400;45.472;-122.822;2023-02-19T07:00:58;12.00;;;3.67;;
6374;SDS011;35400;45.472;-122.822;2023-02-19T07:03:25;17.03;;;4.97;;
6374;SDS011;35400;45.472;-122.822;2023-02-19T07:05:53;20.30;;;4.70;;
6374;SDS011;35400;45.472;-122.822;2023-02-19T07:08:20;16.83;;;4.10;;
6374;SDS011;35400;45.472;-122.822;2023-02-19T07:10:53;18.47;;;4.80;;
6374;SDS011;35400;45.472;-122.822;2023-02-19T07:13:22;20.97;;;4.50;;
6374;SDS011;35400;45.472;-122.822;2023-02-19T07:15:51;14.30;;;3.93;;
6374;SDS011;35400;45.472;-122.822;2023-02-19T07:18:24;18.97;;;4.27;;
6374;SDS011;35400;45.472;-122.822;2023-02-19T07:20:51;15.33;;;3.60;;
6374;SDS011;35400;45.472;-122.822;2023-02-19T07:23:18;12.60;;;4.10;;
6374;SDS011;35400;45.472;-122.822;2023-02-19T07:25:44;16.53;;;3.70;;
6374;SDS011;35400;45.472;-122.822;2023-02-19T07:28:11;15.60;;;4.33;;
6374;SDS011;35400;45.472;-122.822;2023-02-19T07:30:38;19.47;;;4.97;;
6374;SDS011;35400;45.472;-122.822;2023-02-19T07:33:05;15.20;;;4.13;;
6374;SDS011;35400;45.472;-122.822;2023-02-19T07:35:32;13.30;;;3.83;;
6374;SDS011;35400;45.472;-122.822;2023-02-19T07:37:59;13.87;;;3.83;;
6374;SDS011;35400;45.472;-122.822;2023-02-19T07:40:25;11.37;;;3.20;;
6374;SDS011;35400;45.472;-122.822;2023-02-19T07:42:52;14.03;;;4.23;;
6374;SDS011;35400;45.472;-122.822;2023-02-19T07:45:20;13.93;;;4.00;;
6374;SDS011;35400;45.472;-122.822;2023-02-19T07:47:47;18.30;;;4.30;;
6374;SDS011;35400;45.472;-122.822;2023-02-19T07:50:14;16.57;;;4.53;;
6374;SDS011;35400;45.472;-122.822;2023-02-19T07:52:40;16.17;;;5.20;;
6374;SDS011;35400;45.472;-122.822;2023-02-19T07:55:07;13.90;;;4.27;;
6374;SDS011;35400;45.472;-122.822;2023-02-19T07:57:34;14.00;;;4.30;;
6374;SDS011;35400;45.472;-122.822;2023-02-19T08:00:01;17.07;;;4.90;;
6374;SDS011;35400;45.472;-122.822;2023-02-19T08:02:38;14.67;;;5.13;;
6374;SDS011;35400;45.472;-122.822;2023-02-19T08:05:23;15.57;;;4.30;;
6374;SDS011;35400;45.472;-122.822;2023-02-19T08:07:51;16.10;;;4.77;;
6374;SDS011;35400;45.472;-122.822;2023-02-19T08:10:17;15.00;;;4.50;;
6374;SDS011;35400;45.472;-122.822;2023-02-19T08:13:04;20.37;;;5.53;;
6374;SDS011;35400;45.472;-122.822;2023-02-19T08:15:50;16.40;;;4.77;;
6374;SDS011;35400;45.472;-122.822;2023-02-19T08:18:20;12.23;;;4.60;;
6374;SDS011;35400;45.472;-122.822;2023-02-19T08:20:48;20.40;;;5.87;;
6374;SDS011;35400;45.472;-122.822;2023-02-19T08:23:16;14.30;;;5.50;;
6374;SDS011;35400;45.472;-122.822;2023-02-19T08:25:43;22.17;;;5.67;;
6374;SDS011;35400;45.472;-122.822;2023-02-19T08:28:10;17.83;;;5.10;;
6374;SDS011;35400;45.472;-122.822;2023-02-19T08:30:38;16.43;;;5.73;;
6374;SDS011;35400;45.472;-122.822;2023-02-19T08:33:06;16.90;;;6.13;;
6374;SDS011;35400;45.472;-122.822;2023-02-19T08:35:34;20.33;;;6.83;;
6374;SDS011;35400;45.472;-122.822;2023-02-19T08:38:04;19.57;;;6.60;;
6374;SDS011;35400;45.472;-122.822;2023-02-19T08:40:32;21.17;;;6.63;;
6374;SDS011;35400;45.472;-122.822;2023-02-19T08:43:17;18.13;;;6.20;;
6374;SDS011;35400;45.472;-122.822;2023-02-19T08:45:45;19.20;;;6.30;;
6374;SDS011;35400;45.472;-122.822;2023-02-19T08:48:12;15.87;;;6.03;;
6374;SDS011;35400;45.472;-122.822;2023-02-19T08:50:39;15.73;;;6.03;;
6374;SDS011;35400;45.472;-122.822;2023-02-19T08:53:06;17.63;;;5.97;;
6374;SDS011;35400;45.472;-122.822;2023-02-19T08:55:35;19.33;;;6.17;;
6374;SDS011;35400;45.472;-122.822;2023-02-19T08:58:03;23.07;;;5.87;;
6374;SDS011;35400;45.472;-122.822;2023-02-19T09:00:30;17.30;;;6.17;;
6374;SDS011;35400;45.472;-122.822;2023-02-19T09:02:57;14.47;;;6.03;;
6374;SDS011;35400;45.472;-122.822;2023-02-19T09:05:24;22.07;;;8.10;;
6374;SDS011;35400;45.472;-122.822;2023-02-19T09:07:51;19.00;;;5.83;;
6374;SDS011;35400;45.472;-122.822;2023-02-19T09:10:18;20.43;;;7.13;;
6374;SDS011;35400;45.472;-122.822;2023-02-19T09:12:45;18.63;;;6.53;;
6374;SDS011;35400;45.472;-122.822;2023-02-19T09:15:12;22.50;;;6.13;;
6374;SDS011;35400;45.472;-122.822;2023-02-19T09:17:39;16.73;;;5.87;;
6374;SDS011;35400;45.472;-122.822;2023-02-19T09:20:06;15.17;;;5.93;;
6374;SDS011;35400;45.472;-122.822;2023-02-19T09:22:33;20.57;;;6.93;;
6374;SDS011;35400;45.472;-122.822;2023-02-19T09:25:00;23.13;;;6.67;;
6374;SDS011;35400;45.472;-122.822;2023-02-19T09:27:27;16.63;;;6.23;;
6374;SDS011;35400;45.472;-122.822;2023-02-19T09:29:56;15.80;;;6.43;;
6374;SDS011;35400;45.472;-122.822;2023-02-19T09:32:23;17.07;;;6.73;;
6374;SDS011;35400;45.472;-122.822;2023-02-19T09:34:50;19.27;;;6.87;;
6374;SDS011;35400;45.472;-122.822;2023-02-19T09:37:17;21.03;;;6.83;;
6374;SDS011;35400;45.472;-122.822;2023-02-19T09:39:44;20.97;;;6.70;;
6374;SDS011;35400;45.472;-122.822;2023-02-19T09:42:12;15.80;;;7.20;;
6374;SDS011;35400;45.472;-122.822;2023-02-19T09:44:44;19.60;;;6.97;;
6374;SDS011;35400;45.472;-122.822;2023-02-19T09:47:16;22.70;;;8.37;;
6374;SDS011;35400;45.472;-122.822;2023-02-19T09:49:48;26.77;;;8.27;;
6374;SDS011;35400;45.472;-122.822;2023-02-19T09:52:30;19.77;;;7.27;;
6374;SDS011;35400;45.472;-122.822;2023-02-19T09:55:16;20.83;;;7.23;;
6374;SDS011;35400;45.472;-122.822;2023-02-19T09:58:33;18.73;;;7.23;;
6374;SDS011;35400;45.472;-122.822;2023-02-19T10:01:12;21.07;;;7.73;;
6374;SDS011;35400;45.472;-122.822;2023-02-19T10:03:39;18.80;;;8.73;;
6374;SDS011;35400;45.472;-122.822;2023-02-19T10:06:13;18.70;;;7.13;;
6374;SDS011;35400;45.472;-122.822;2023-02-19T10:08:43;16.17;;;6.73;;
6374;SDS011;35400;45.472;-122.822;2023-02-19T10:11:11;20.83;;;7.33;;
6374;SDS011;35400;45.472;-122.822;2023-02-19T10:13:40;19.30;;;8.00;;
6374;SDS011;35400;45.472;-122.822;2023-02-19T10:16:10;20.03;;;7.33;;
6374;SDS011;35400;45.472;-122.822;2023-02-19T10:18:43;21.20;;;7.47;;
6374;SDS011;35400;45.472;-122.822;2023-02-19T10:21:21;24.17;;;7.50;;
6374;SDS011;35400;45.472;-122.822;2023-02-19T10:23:52;14.87;;;6.93;;
6374;SDS011;35400;45.472;-122.822;2023-02-19T10:26:22;18.20;;;7.77;;
6374;SDS011;35400;45.472;-122.822;2023-02-19T10:28:49;23.20;;;8.43;;
6374;SDS011;35400;45.472;-122.822;2023-02-19T10:31:20;22.60;;;7.87;;
6374;SDS011;35400;45.472;-122.822;2023-02-19T10:33:49;17.67;;;7.23;;
6374;SDS011;35400;45.472;-122.822;2023-02-19T10:36:25;16.30;;;7.70;;
6374;SDS011;35400;45.472;-122.822;2023-02-19T10:38:59;16.33;;;7.47;;
6374;SDS011;35400;45.472;-122.822;2023-02-19T10:41:30;22.63;;;7.57;;
6374;SDS011;35400;45.472;-122.822;2023-02-19T10:44:04;20.50;;;7.57;;
6374;SDS011;35400;45.472;-122.822;2023-02-19T10:46:52;19.30;;;6.97;;
6374;SDS011;35400;45.472;-122.822;2023-02-19T10:49:25;23.53;;;7.80;;
6374;SDS011;35400;45.472;-122.822;2023-02-19T10:52:10;15.73;;;7.00;;
6374;SDS011;35400;45.472;-122.822;2023-02-19T10:54:43;14.53;;;6.67;;
6374;SDS011;35400;45.472;-122.822;2023-02-19T10:59:49;18.67;;;7.00;;
6374;SDS011;35400;45.472;-122.822;2023-02-19T11:02:24;20.27;;;6.90;;
6374;SDS011;35400;45.472;-122.822;2023-02-19T11:05:02;22.17;;;7.87;;
6374;SDS011;35400;45.472;-122.822;2023-02-19T11:07:47;20.40;;;8.03;;
6374;SDS011;35400;45.472;-122.822;2023-02-19T11:10:23;17.67;;;7.27;;
6374;SDS011;35400;45.472;-122.822;2023-02-19T11:12:54;22.60;;;7.80;;
6374;SDS011;35400;45.472;-122.822;2023-02-19T11:15:33;18.40;;;7.23;;
6374;SDS011;35400;45.472;-122.822;2023-02-19T11:20:53;21.23;;;7.90;;
6374;SDS011;35400;45.472;-122.822;2023-02-19T11:23:24;16.57;;;6.67;;
6374;SDS011;35400;45.472;-122.822;2023-02-19T11:26:24;18.40;;;6.50;;
6374;SDS011;35400;45.472;-122.822;2023-02-19T11:28:56;14.30;;;5.63;;
6374;SDS011;35400;45.472;-122.822;2023-02-19T11:31:36;17.57;;;5.93;;
6374;SDS011;35400;45.472;-122.822;2023-02-19T11:34:21;14.30;;;5.30;;
6374;SDS011;35400;45.472;-122.822;2023-02-19T11:37:08;15.20;;;6.50;;
6374;SDS011;35400;45.472;-122.822;2023-02-19T11:39:40;16.13;;;5.77;;
6374;SDS011;35400;45.472;-122.822;2023-02-19T11:42:19;18.17;;;6.10;;
6374;SDS011;35400;45.472;-122.822;2023-02-19T11:50:53;17.40;;;5.43;;
6374;SDS011;35400;45.472;-122.822;2023-02-19T11:53:51;12.47;;;4.87;;
6374;SDS011;35400;45.472;-122.822;2023-02-19T11:56:47;14.07;;;5.27;;
6374;SDS011;35400;45.472;-122.822;2023-02-19T11:59:25;13.07;;;4.70;;
6374;SDS011;35400;45.472;-122.822;2023-02-19T12:02:26;13.17;;;4.73;;
6374;SDS011;35400;45.472;-122.822;2023-02-19T12:10:46;14.40;;;4.80;;
6374;SDS011;35400;45.472;-122.822;2023-02-19T12:21:38;19.33;;;5.13;;
6374;SDS011;35400;45.472;-122.822;2023-02-19T12:29:40;15.90;;;4.80;;
6374;SDS011;35400;45.472;-122.822;2023-02-19T12:32:48;14.33;;;4.30;;
6374;SDS011;35400;45.472;-122.822;2023-02-19T12:35:42;16.03;;;4.50;;
6374;SDS011;35400;45.472;-122.822;2023-02-19T12:38:19;16.43;;;4.60;;
6374;SDS011;35400;45.472;-122.822;2023-02-19T12:43:45;16.67;;;4.70;;
6374;SDS011;35400;45.472;-122.822;2023-02-19T12:46:20;14.13;;;4.80;;
6374;SDS011;35400;45.472;-122.822;2023-02-19T12:48:57;15.10;;;5.13;;
6374;SDS011;35400;45.472;-122.822;2023-02-19T12:51:42;14.20;;;5.40;;
6374;SDS011;35400;45.472;-122.822;2023-02-19T12:57:03;14.90;;;5.43;;
6374;SDS011;35400;45.472;-122.822;2023-02-19T12:59:38;17.67;;;6.00;;
6374;SDS011;35400;45.472;-122.822;2023-02-19T13:11:04;23.13;;;6.20;;
6374;SDS011;35400;45.472;-122.822;2023-02-19T13:13:53;23.73;;;5.97;;
6374;SDS011;35400;45.472;-122.822;2023-02-19T13:16:43;15.13;;;5.43;;
6374;SDS011;35400;45.472;-122.822;2023-02-19T13:19:15;19.17;;;5.67;;
6374;SDS011;35400;45.472;-122.822;2023-02-19T13:21:42;16.87;;;4.73;;
6374;SDS011;35400;45.472;-122.822;2023-02-19T13:24:35;13.67;;;5.43;;
6374;SDS011;35400;45.472;-122.822;2023-02-19T13:30:19;17.47;;;5.20;;
6374;SDS011;35400;45.472;-122.822;2023-02-19T13:33:18;19.00;;;5.80;;
6374;SDS011;35400;45.472;-122.822;2023-02-19T13:38:21;20.17;;;6.33;;
6374;SDS011;35400;45.472;-122.822;2023-02-19T13:40:52;18.40;;;5.57;;
6374;SDS011;35400;45.472;-122.822;2023-02-19T13:43:31;20.00;;;5.80;;
6374;SDS011;35400;45.472;-122.822;2023-02-19T13:46:07;18.20;;;5.37;;
6374;SDS011;35400;45.472;-122.822;2023-02-19T13:48:37;17.43;;;5.53;;
6374;SDS011;35400;45.472;-122.822;2023-02-19T13:58:57;14.90;;;4.33;;
6374;SDS011;35400;45.472;-122.822;2023-02-19T14:04:19;14.63;;;5.10;;
6374;SDS011;35400;45.472;-122.822;2023-02-19T14:12:03;16.53;;;5.17;;
6374;SDS011;35400;45.472;-122.822;2023-02-19T14:27:52;17.53;;;5.17;;
6374;SDS011;35400;45.472;-122.822;2023-02-19T14:30:26;14.13;;;4.57;;
6374;SDS011;35400;45.472;-122.822;2023-02-19T14:32:53;15.47;;;4.90;;
6374;SDS011;35400;45.472;-122.822;2023-02-19T14:35:22;18.40;;;5.20;;
6374;SDS011;35400;45.472;-122.822;2023-02-19T14:37:55;13.07;;;4.60;;
6374;SDS011;35400;45.472;-122.822;2023-02-19T14:40:26;14.27;;;4.13;;
6374;SDS011;35400;45.472;-122.822;2023-02-19T14:43:08;10.53;;;3.60;;
6374;SDS011;35400;45.472;-122.822;2023-02-19T14:45:41;15.27;;;4.40;;
6374;SDS011;35400;45.472;-122.822;2023-02-19T14:48:33;13.90;;;4.97;;
6374;SDS011;35400;45.472;-122.822;2023-02-19T14:51:13;15.60;;;4.03;;
6374;SDS011;35400;45.472;-122.822;2023-02-19T14:53:43;16.87;;;4.43;;
6374;SDS011;35400;45.472;-122.822;2023-02-19T14:56:19;13.83;;;4.50;;
6374;SDS011;35400;45.472;-122.822;2023-02-19T14:59:14;15.60;;;4.87;;
6374;SDS011;35400;45.472;-122.822;2023-02-19T15:01:52;15.23;;;5.00;;
6374;SDS011;35400;45.472;-122.822;2023-02-19T15:04:28;15.07;;;4.63;;
6374;SDS011;35400;45.472;-122.822;2023-02-19T15:07:00;14.33;;;4.63;;
6374;SDS011;35400;45.472;-122.822;2023-02-19T15:09:31;14.03;;;4.47;;
6374;SDS011;35400;45.472;-122.822;2023-02-19T15:12:02;12.13;;;3.90;;
6374;SDS011;35400;45.472;-122.822;2023-02-19T15:14:29;14.50;;;4.73;;
6374;SDS011;35400;45.472;-122.822;2023-02-19T15:16:59;16.77;;;4.30;;
6374;SDS011;35400;45.472;-122.822;2023-02-19T15:19:32;20.00;;;7.27;;
6374;SDS011;35400;45.472;-122.822;2023-02-19T15:22:00;16.87;;;6.13;;
6374;SDS011;35400;45.472;-122.822;2023-02-19T15:24:28;17.20;;;5.70;;
6374;SDS011;35400;45.472;-122.822;2023-02-19T15:26:55;19.40;;;5.90;;
6374;SDS011;35400;45.472;-122.822;2023-02-19T15:29:23;16.53;;;5.67;;
6374;SDS011;35400;45.472;-122.822;2023-02-19T15:31:58;14.70;;;5.87;;
6374;SDS011;35400;45.472;-122.822;2023-02-19T15:34:30;14.40;;;5.27;;
6374;SDS011;35400;45.472;-122.822;2023-02-19T15:37:04;15.23;;;5.60;;
6374;SDS011;35400;45.472;-122.822;2023-02-19T15:39:34;11.60;;;4.67;;
6374;SDS011;35400;45.472;-122.822;2023-02-19T15:42:27;18.03;;;4.93;;
6374;SDS011;35400;45.472;-122.822;2023-02-19T15:47:37;15.63;;;5.53;;
6374;SDS011;35400;45.472;-122.822;2023-02-19T15:50:10;12.83;;;4.53;;
6374;SDS011;35400;45.472;-122.822;2023-02-19T15:57:40;16.90;;;5.87;;
6374;SDS011;35400;45.472;-122.822;2023-02-19T16:00:25;20.53;;;4.87;;
6374;SDS011;35400;45.472;-122.822;2023-02-19T16:03:12;12.70;;;4.53;;
6374;SDS011;35400;45.472;-122.822;2023-02-19T16:05:56;14.73;;;4.57;;
6374;SDS011;35400;45.472;-122.822;2023-02-19T16:08:35;18.20;;;6.03;;
6374;SDS011;35400;45.472;-122.822;2023-02-19T16:11:37;17.20;;;5.67;;
6374;SDS011;35400;45.472;-122.822;2023-02-19T16:16:53;14.70;;;5.20;;
6374;SDS011;35400;45.472;-122.822;2023-02-19T16:19:26;18.13;;;5.77;;
6374;SDS011;35400;45.472;-122.822;2023-02-19T16:21:55;15.43;;;5.57;;
6374;SDS011;35400;45.472;-122.822;2023-02-19T16:24:34;16.80;;;5.37;;
6374;SDS011;35400;45.472;-122.822;2023-02-19T16:27:03;14.93;;;5.07;;
6374;SDS011;35400;45.472;-122.822;2023-02-19T16:29:32;22.73;;;5.97;;
6374;SDS011;35400;45.472;-122.822;2023-02-19T16:32:00;18.97;;;5.67;;
6374;SDS011;35400;45.472;-122.822;2023-02-19T16:34:38;21.23;;;5.37;;
6374;SDS011;35400;45.472;-122.822;2023-02-19T16:43:22;20.50;;;5.10;;
6374;SDS011;35400;45.472;-122.822;2023-02-19T16:45:56;17.27;;;5.03;;
6374;SDS011;35400;45.472;-122.822;2023-02-19T16:48:24;12.73;;;3.90;;
6374;SDS011;35400;45.472;-122.822;2023-02-19T16:50:51;13.43;;;4.77;;
6374;SDS011;35400;45.472;-122.822;2023-02-19T16:53:22;15.23;;;4.30;;
6374;SDS011;35400;45.472;-122.822;2023-02-19T16:55:50;19.90;;;5.57;;
6374;SDS011;35400;45.472;-122.822;2023-02-19T16:58:17;17.00;;;4.77;;